Eaglesham, Canada
Current Conditions -  °F | °C
As of 3:00 AM on Sunday 21 Dec 2014 (Local Time) from CYPE Reporting Station
Scattered Clouds Scattered Clouds  
Wind Chill:   Ceiling: Unl
Heat Index: 14°   Visibility: 15mi
Dew Point: 12°   Wind: 7mph
Humidity: 93%   Direction: 350°N
Pressure: 29.24"   Gusts: NA
Location:  55.78°N, 117.9°W
Report Text: CYPE 211000Z 35006KT 15SM FEW060 SCT250 M10/M11 A2924 RMK SC1CI3 SLP940
Loading
Personal Weather Stations






























Interactive Weather Map New forecast layout! Learn more

10-Day Weather Forecast

Advertisements
Track Severe Weather on mobile